sensor_id;sensor_type;location;lat;lon;timestamp;P1;durP1;ratioP1;P2;durP2;ratioP2
31978;SDS011;18502;43.574;1.276;2022-08-03T00:02:25;2.63;;;1.00;;
31978;SDS011;18502;43.574;1.276;2022-08-03T00:04:51;3.17;;;1.35;;
31978;SDS011;18502;43.574;1.276;2022-08-03T00:07:16;2.92;;;1.50;;
31978;SDS011;18502;43.574;1.276;2022-08-03T00:09:42;3.25;;;1.30;;
31978;SDS011;18502;43.574;1.276;2022-08-03T00:12:08;1.95;;;1.15;;
31978;SDS011;18502;43.574;1.276;2022-08-03T00:14:34;1.80;;;1.10;;
31978;SDS011;18502;43.574;1.276;2022-08-03T00:16:59;3.65;;;1.27;;
31978;SDS011;18502;43.574;1.276;2022-08-03T00:19:25;3.35;;;1.20;;
31978;SDS011;18502;43.574;1.276;2022-08-03T00:21:51;5.57;;;1.38;;
31978;SDS011;18502;43.574;1.276;2022-08-03T00:24:17;4.40;;;1.17;;
31978;SDS011;18502;43.574;1.276;2022-08-03T00:26:43;2.33;;;1.10;;
31978;SDS011;18502;43.574;1.276;2022-08-03T00:29:09;6.65;;;1.48;;
31978;SDS011;18502;43.574;1.276;2022-08-03T00:31:35;1.75;;;0.90;;
31978;SDS011;18502;43.574;1.276;2022-08-03T00:34:01;3.20;;;1.42;;
31978;SDS011;18502;43.574;1.276;2022-08-03T00:36:26;3.10;;;1.25;;
31978;SDS011;18502;43.574;1.276;2022-08-03T00:38:52;4.95;;;1.45;;
31978;SDS011;18502;43.574;1.276;2022-08-03T00:41:18;5.40;;;1.52;;
31978;SDS011;18502;43.574;1.276;2022-08-03T00:43:44;5.60;;;1.10;;
31978;SDS011;18502;43.574;1.276;2022-08-03T00:46:11;4.15;;;1.38;;
31978;SDS011;18502;43.574;1.276;2022-08-03T00:48:37;3.47;;;1.63;;
31978;SDS011;18502;43.574;1.276;2022-08-03T00:51:03;3.38;;;1.60;;
31978;SDS011;18502;43.574;1.276;2022-08-03T00:53:29;2.47;;;1.48;;
31978;SDS011;18502;43.574;1.276;2022-08-03T00:55:56;2.28;;;1.27;;
31978;SDS011;18502;43.574;1.276;2022-08-03T00:58:22;1.50;;;1.33;;
31978;SDS011;18502;43.574;1.276;2022-08-03T01:00:48;2.58;;;1.20;;
31978;SDS011;18502;43.574;1.276;2022-08-03T01:03:14;2.53;;;1.38;;
31978;SDS011;18502;43.574;1.276;2022-08-03T01:08:31;3.17;;;1.40;;
31978;SDS011;18502;43.574;1.276;2022-08-03T01:11:23;2.83;;;1.33;;
31978;SDS011;18502;43.574;1.276;2022-08-03T01:14:08;3.00;;;1.38;;
31978;SDS011;18502;43.574;1.276;2022-08-03T01:16:59;2.17;;;1.25;;
31978;SDS011;18502;43.574;1.276;2022-08-03T01:19:44;2.53;;;1.15;;
31978;SDS011;18502;43.574;1.276;2022-08-03T01:27:42;6.13;;;1.50;;
31978;SDS011;18502;43.574;1.276;2022-08-03T01:30:12;5.53;;;1.83;;
31978;SDS011;18502;43.574;1.276;2022-08-03T01:35:13;3.65;;;1.27;;
31978;SDS011;18502;43.574;1.276;2022-08-03T01:37:52;3.47;;;1.30;;
31978;SDS011;18502;43.574;1.276;2022-08-03T01:42:49;3.20;;;1.20;;
31978;SDS011;18502;43.574;1.276;2022-08-03T01:45:16;7.28;;;1.17;;
31978;SDS011;18502;43.574;1.276;2022-08-03T01:47:44;6.18;;;1.42;;
31978;SDS011;18502;43.574;1.276;2022-08-03T01:50:11;2.97;;;1.40;;
31978;SDS011;18502;43.574;1.276;2022-08-03T01:52:39;4.90;;;1.60;;
31978;SDS011;18502;43.574;1.276;2022-08-03T01:55:07;2.35;;;1.33;;
31978;SDS011;18502;43.574;1.276;2022-08-03T01:57:34;2.92;;;1.20;;
31978;SDS011;18502;43.574;1.276;2022-08-03T02:00:03;2.45;;;1.35;;
31978;SDS011;18502;43.574;1.276;2022-08-03T02:02:30;1.45;;;1.25;;
31978;SDS011;18502;43.574;1.276;2022-08-03T02:04:57;1.45;;;1.10;;
31978;SDS011;18502;43.574;1.276;2022-08-03T02:07:25;4.30;;;1.40;;
31978;SDS011;18502;43.574;1.276;2022-08-03T02:09:53;5.93;;;1.40;;
31978;SDS011;18502;43.574;1.276;2022-08-03T02:12:21;1.20;;;1.10;;
31978;SDS011;18502;43.574;1.276;2022-08-03T02:14:49;4.80;;;1.23;;
31978;SDS011;18502;43.574;1.276;2022-08-03T02:17:16;2.83;;;1.40;;
31978;SDS011;18502;43.574;1.276;2022-08-03T02:19:43;2.08;;;1.08;;
31978;SDS011;18502;43.574;1.276;2022-08-03T02:22:10;2.13;;;1.40;;
31978;SDS011;18502;43.574;1.276;2022-08-03T02:24:37;4.70;;;1.90;;
31978;SDS011;18502;43.574;1.276;2022-08-03T02:27:06;2.78;;;1.52;;
31978;SDS011;18502;43.574;1.276;2022-08-03T02:29:36;4.00;;;1.48;;
31978;SDS011;18502;43.574;1.276;2022-08-03T02:32:05;8.40;;;2.05;;
31978;SDS011;18502;43.574;1.276;2022-08-03T02:34:33;3.28;;;1.27;;
31978;SDS011;18502;43.574;1.276;2022-08-03T02:37:00;2.83;;;1.63;;
31978;SDS011;18502;43.574;1.276;2022-08-03T02:39:29;2.53;;;1.58;;
31978;SDS011;18502;43.574;1.276;2022-08-03T02:41:57;5.60;;;1.88;;
31978;SDS011;18502;43.574;1.276;2022-08-03T02:44:27;3.35;;;1.65;;
31978;SDS011;18502;43.574;1.276;2022-08-03T02:47:02;7.60;;;1.88;;
31978;SDS011;18502;43.574;1.276;2022-08-03T02:49:31;5.65;;;1.80;;
31978;SDS011;18502;43.574;1.276;2022-08-03T02:51:58;3.58;;;1.80;;
31978;SDS011;18502;43.574;1.276;2022-08-03T02:54:25;4.28;;;1.45;;
31978;SDS011;18502;43.574;1.276;2022-08-03T02:56:52;4.13;;;1.80;;
31978;SDS011;18502;43.574;1.276;2022-08-03T02:59:20;3.78;;;1.80;;
31978;SDS011;18502;43.574;1.276;2022-08-03T03:01:47;5.30;;;1.50;;
31978;SDS011;18502;43.574;1.276;2022-08-03T03:04:14;8.32;;;2.20;;
31978;SDS011;18502;43.574;1.276;2022-08-03T03:06:41;5.53;;;1.65;;
31978;SDS011;18502;43.574;1.276;2022-08-03T03:09:08;4.28;;;1.70;;
31978;SDS011;18502;43.574;1.276;2022-08-03T03:11:35;4.93;;;1.63;;
31978;SDS011;18502;43.574;1.276;2022-08-03T03:14:03;5.75;;;1.48;;
31978;SDS011;18502;43.574;1.276;2022-08-03T03:16:29;6.35;;;1.70;;
31978;SDS011;18502;43.574;1.276;2022-08-03T03:18:56;3.60;;;1.52;;
31978;SDS011;18502;43.574;1.276;2022-08-03T03:21:23;5.70;;;1.50;;
31978;SDS011;18502;43.574;1.276;2022-08-03T03:23:50;3.65;;;1.42;;
31978;SDS011;18502;43.574;1.276;2022-08-03T03:26:17;3.67;;;1.83;;
31978;SDS011;18502;43.574;1.276;2022-08-03T03:28:43;3.65;;;1.70;;
31978;SDS011;18502;43.574;1.276;2022-08-03T03:31:09;3.72;;;1.40;;
31978;SDS011;18502;43.574;1.276;2022-08-03T03:33:35;6.10;;;1.75;;
31978;SDS011;18502;43.574;1.276;2022-08-03T03:36:02;3.90;;;1.60;;
31978;SDS011;18502;43.574;1.276;2022-08-03T03:38:30;4.40;;;1.80;;
31978;SDS011;18502;43.574;1.276;2022-08-03T03:40:56;3.20;;;1.90;;
31978;SDS011;18502;43.574;1.276;2022-08-03T03:43:22;5.47;;;1.70;;
31978;SDS011;18502;43.574;1.276;2022-08-03T03:45:48;4.55;;;1.40;;
31978;SDS011;18502;43.574;1.276;2022-08-03T03:48:17;2.70;;;1.30;;
31978;SDS011;18502;43.574;1.276;2022-08-03T03:50:43;4.75;;;1.50;;
31978;SDS011;18502;43.574;1.276;2022-08-03T03:53:09;4.63;;;1.40;;
31978;SDS011;18502;43.574;1.276;2022-08-03T03:55:37;4.97;;;1.90;;
31978;SDS011;18502;43.574;1.276;2022-08-03T03:58:03;2.90;;;1.55;;
31978;SDS011;18502;43.574;1.276;2022-08-03T04:00:29;4.28;;;1.55;;
31978;SDS011;18502;43.574;1.276;2022-08-03T04:02:55;4.45;;;1.30;;
31978;SDS011;18502;43.574;1.276;2022-08-03T04:05:21;4.03;;;1.85;;
31978;SDS011;18502;43.574;1.276;2022-08-03T04:08:06;5.35;;;2.28;;
31978;SDS011;18502;43.574;1.276;2022-08-03T04:13:46;4.07;;;1.80;;
31978;SDS011;18502;43.574;1.276;2022-08-03T04:16:24;3.28;;;1.40;;
31978;SDS011;18502;43.574;1.276;2022-08-03T04:21:21;3.13;;;1.63;;
31978;SDS011;18502;43.574;1.276;2022-08-03T04:23:49;1.83;;;1.73;;
31978;SDS011;18502;43.574;1.276;2022-08-03T04:26:20;3.70;;;1.58;;
31978;SDS011;18502;43.574;1.276;2022-08-03T04:28:49;4.90;;;1.33;;
31978;SDS011;18502;43.574;1.276;2022-08-03T04:31:16;3.33;;;1.63;;
31978;SDS011;18502;43.574;1.276;2022-08-03T04:33:45;3.42;;;1.67;;
31978;SDS011;18502;43.574;1.276;2022-08-03T04:36:13;3.45;;;1.60;;
31978;SDS011;18502;43.574;1.276;2022-08-03T04:38:43;5.03;;;1.25;;
31978;SDS011;18502;43.574;1.276;2022-08-03T04:43:49;1.65;;;1.50;;
31978;SDS011;18502;43.574;1.276;2022-08-03T04:46:17;3.53;;;1.40;;
31978;SDS011;18502;43.574;1.276;2022-08-03T04:48:46;2.40;;;1.48;;
31978;SDS011;18502;43.574;1.276;2022-08-03T04:51:12;5.55;;;1.80;;
31978;SDS011;18502;43.574;1.276;2022-08-03T04:53:39;1.58;;;1.48;;
31978;SDS011;18502;43.574;1.276;2022-08-03T04:56:06;6.60;;;1.58;;
31978;SDS011;18502;43.574;1.276;2022-08-03T04:58:32;6.40;;;2.20;;
31978;SDS011;18502;43.574;1.276;2022-08-03T05:00:58;3.58;;;1.70;;
31978;SDS011;18502;43.574;1.276;2022-08-03T05:03:24;3.80;;;1.88;;
31978;SDS011;18502;43.574;1.276;2022-08-03T05:05:52;7.90;;;1.65;;
31978;SDS011;18502;43.574;1.276;2022-08-03T05:08:19;4.72;;;2.20;;
31978;SDS011;18502;43.574;1.276;2022-08-03T05:10:45;1.95;;;1.40;;
31978;SDS011;18502;43.574;1.276;2022-08-03T05:13:11;5.82;;;1.65;;
31978;SDS011;18502;43.574;1.276;2022-08-03T05:15:37;4.25;;;1.60;;
31978;SDS011;18502;43.574;1.276;2022-08-03T05:18:04;6.22;;;2.00;;
31978;SDS011;18502;43.574;1.276;2022-08-03T05:20:30;2.45;;;1.80;;
31978;SDS011;18502;43.574;1.276;2022-08-03T05:22:56;4.60;;;1.92;;
31978;SDS011;18502;43.574;1.276;2022-08-03T05:25:23;5.75;;;1.50;;
31978;SDS011;18502;43.574;1.276;2022-08-03T05:27:49;4.07;;;1.77;;
31978;SDS011;18502;43.574;1.276;2022-08-03T05:30:14;8.45;;;1.98;;
31978;SDS011;18502;43.574;1.276;2022-08-03T05:32:40;2.17;;;1.65;;
31978;SDS011;18502;43.574;1.276;2022-08-03T05:35:06;3.92;;;1.80;;
31978;SDS011;18502;43.574;1.276;2022-08-03T05:37:32;6.97;;;1.52;;
31978;SDS011;18502;43.574;1.276;2022-08-03T05:39:58;2.97;;;1.65;;
31978;SDS011;18502;43.574;1.276;2022-08-03T05:42:23;6.35;;;2.05;;
31978;SDS011;18502;43.574;1.276;2022-08-03T05:44:49;7.13;;;2.05;;
31978;SDS011;18502;43.574;1.276;2022-08-03T05:47:15;4.60;;;1.50;;
31978;SDS011;18502;43.574;1.276;2022-08-03T05:49:40;6.80;;;1.77;;
31978;SDS011;18502;43.574;1.276;2022-08-03T05:52:06;4.93;;;1.90;;
31978;SDS011;18502;43.574;1.276;2022-08-03T05:54:31;3.28;;;1.88;;
31978;SDS011;18502;43.574;1.276;2022-08-03T05:56:57;4.88;;;1.85;;
31978;SDS011;18502;43.574;1.276;2022-08-03T05:59:23;6.25;;;1.67;;
31978;SDS011;18502;43.574;1.276;2022-08-03T06:01:49;4.03;;;1.48;;
31978;SDS011;18502;43.574;1.276;2022-08-03T06:04:15;3.83;;;1.80;;
31978;SDS011;18502;43.574;1.276;2022-08-03T06:06:41;3.70;;;1.70;;
31978;SDS011;18502;43.574;1.276;2022-08-03T06:09:07;8.60;;;2.00;;
31978;SDS011;18502;43.574;1.276;2022-08-03T06:11:37;6.53;;;1.63;;
31978;SDS011;18502;43.574;1.276;2022-08-03T06:14:04;4.32;;;1.50;;
31978;SDS011;18502;43.574;1.276;2022-08-03T06:16:30;2.17;;;1.90;;
31978;SDS011;18502;43.574;1.276;2022-08-03T06:18:56;7.72;;;1.80;;
31978;SDS011;18502;43.574;1.276;2022-08-03T06:21:22;4.70;;;1.90;;
31978;SDS011;18502;43.574;1.276;2022-08-03T06:23:47;2.92;;;1.50;;
31978;SDS011;18502;43.574;1.276;2022-08-03T06:26:13;5.28;;;2.10;;
31978;SDS011;18502;43.574;1.276;2022-08-03T06:28:39;5.82;;;1.58;;
31978;SDS011;18502;43.574;1.276;2022-08-03T06:31:05;3.70;;;1.42;;
31978;SDS011;18502;43.574;1.276;2022-08-03T06:33:30;6.15;;;1.70;;
31978;SDS011;18502;43.574;1.276;2022-08-03T06:35:56;1.98;;;1.48;;
31978;SDS011;18502;43.574;1.276;2022-08-03T06:38:22;5.40;;;1.30;;
31978;SDS011;18502;43.574;1.276;2022-08-03T06:40:47;5.93;;;1.80;;
31978;SDS011;18502;43.574;1.276;2022-08-03T06:43:14;3.78;;;1.75;;
31978;SDS011;18502;43.574;1.276;2022-08-03T06:45:40;2.90;;;1.52;;
31978;SDS011;18502;43.574;1.276;2022-08-03T06:48:07;5.68;;;1.85;;
31978;SDS011;18502;43.574;1.276;2022-08-03T06:50:34;6.35;;;2.47;;
31978;SDS011;18502;43.574;1.276;2022-08-03T06:53:02;4.13;;;1.80;;
31978;SDS011;18502;43.574;1.276;2022-08-03T06:55:28;8.15;;;3.70;;
31978;SDS011;18502;43.574;1.276;2022-08-03T06:57:54;4.28;;;1.77;;
31978;SDS011;18502;43.574;1.276;2022-08-03T07:00:20;4.13;;;1.77;;
31978;SDS011;18502;43.574;1.276;2022-08-03T07:02:46;6.72;;;1.60;;
31978;SDS011;18502;43.574;1.276;2022-08-03T07:05:12;3.28;;;1.90;;
31978;SDS011;18502;43.574;1.276;2022-08-03T07:07:38;5.57;;;1.70;;
31978;SDS011;18502;43.574;1.276;2022-08-03T07:10:05;3.20;;;1.60;;
31978;SDS011;18502;43.574;1.276;2022-08-03T07:12:31;1.75;;;1.50;;
31978;SDS011;18502;43.574;1.276;2022-08-03T07:14:58;8.30;;;1.65;;
31978;SDS011;18502;43.574;1.276;2022-08-03T07:17:25;4.53;;;2.22;;
31978;SDS011;18502;43.574;1.276;2022-08-03T07:19:52;5.20;;;2.90;;
31978;SDS011;18502;43.574;1.276;2022-08-03T07:22:18;6.90;;;2.35;;
31978;SDS011;18502;43.574;1.276;2022-08-03T07:24:43;8.15;;;2.40;;
31978;SDS011;18502;43.574;1.276;2022-08-03T07:27:09;5.25;;;2.55;;
31978;SDS011;18502;43.574;1.276;2022-08-03T07:29:35;11.52;;;3.20;;
31978;SDS011;18502;43.574;1.276;2022-08-03T07:32:04;6.18;;;3.00;;
31978;SDS011;18502;43.574;1.276;2022-08-03T07:34:30;4.07;;;1.77;;
31978;SDS011;18502;43.574;1.276;2022-08-03T07:36:55;5.35;;;2.67;;
31978;SDS011;18502;43.574;1.276;2022-08-03T07:39:21;6.28;;;2.65;;
31978;SDS011;18502;43.574;1.276;2022-08-03T07:41:47;13.25;;;2.45;;
31978;SDS011;18502;43.574;1.276;2022-08-03T07:44:15;5.20;;;2.22;;
31978;SDS011;18502;43.574;1.276;2022-08-03T07:46:41;12.02;;;2.30;;
31978;SDS011;18502;43.574;1.276;2022-08-03T07:49:07;6.07;;;2.90;;
31978;SDS011;18502;43.574;1.276;2022-08-03T07:51:33;10.18;;;2.45;;
31978;SDS011;18502;43.574;1.276;2022-08-03T07:53:58;6.00;;;2.55;;
31978;SDS011;18502;43.574;1.276;2022-08-03T07:56:24;7.88;;;2.60;;
31978;SDS011;18502;43.574;1.276;2022-08-03T07:58:51;4.82;;;2.33;;
31978;SDS011;18502;43.574;1.276;2022-08-03T08:01:18;6.72;;;2.35;;
31978;SDS011;18502;43.574;1.276;2022-08-03T08:03:47;5.60;;;2.15;;
31978;SDS011;18502;43.574;1.276;2022-08-03T08:06:13;8.52;;;2.90;;
31978;SDS011;18502;43.574;1.276;2022-08-03T08:08:40;4.90;;;2.20;;
31978;SDS011;18502;43.574;1.276;2022-08-03T08:11:06;4.03;;;2.33;;
31978;SDS011;18502;43.574;1.276;2022-08-03T08:13:32;3.15;;;2.67;;
31978;SDS011;18502;43.574;1.276;2022-08-03T08:15:57;3.55;;;2.40;;
31978;SDS011;18502;43.574;1.276;2022-08-03T08:18:23;3.15;;;2.50;;
31978;SDS011;18502;43.574;1.276;2022-08-03T08:20:49;5.82;;;2.78;;
31978;SDS011;18502;43.574;1.276;2022-08-03T08:23:15;3.67;;;3.13;;
31978;SDS011;18502;43.574;1.276;2022-08-03T08:25:47;5.70;;;2.47;;
31978;SDS011;18502;43.574;1.276;2022-08-03T08:28:16;6.90;;;2.30;;
31978;SDS011;18502;43.574;1.276;2022-08-03T08:30:42;5.70;;;2.30;;
31978;SDS011;18502;43.574;1.276;2022-08-03T08:33:08;3.83;;;2.53;;
31978;SDS011;18502;43.574;1.276;2022-08-03T08:35:34;5.72;;;2.42;;
31978;SDS011;18502;43.574;1.276;2022-08-03T08:38:00;3.38;;;2.50;;
31978;SDS011;18502;43.574;1.276;2022-08-03T08:40:26;5.57;;;3.05;;
31978;SDS011;18502;43.574;1.276;2022-08-03T08:42:53;2.58;;;2.33;;
31978;SDS011;18502;43.574;1.276;2022-08-03T08:45:19;3.05;;;2.33;;
31978;SDS011;18502;43.574;1.276;2022-08-03T08:47:48;2.67;;;2.15;;
31978;SDS011;18502;43.574;1.276;2022-08-03T08:50:17;4.57;;;2.45;;
31978;SDS011;18502;43.574;1.276;2022-08-03T08:52:49;5.28;;;2.40;;
31978;SDS011;18502;43.574;1.276;2022-08-03T08:55:21;6.63;;;2.78;;
31978;SDS011;18502;43.574;1.276;2022-08-03T09:00:15;5.10;;;2.15;;
31978;SDS011;18502;43.574;1.276;2022-08-03T09:02:41;3.97;;;2.47;;
31978;SDS011;18502;43.574;1.276;2022-08-03T09:05:11;5.05;;;2.42;;
31978;SDS011;18502;43.574;1.276;2022-08-03T09:07:42;6.68;;;2.70;;
31978;SDS011;18502;43.574;1.276;2022-08-03T09:10:09;6.43;;;2.55;;
31978;SDS011;18502;43.574;1.276;2022-08-03T09:12:41;6.57;;;2.50;;
31978;SDS011;18502;43.574;1.276;2022-08-03T09:15:17;2.92;;;2.55;;
31978;SDS011;18502;43.574;1.276;2022-08-03T09:17:51;3.97;;;2.50;;
31978;SDS011;18502;43.574;1.276;2022-08-03T09:20:19;5.43;;;2.55;;
31978;SDS011;18502;43.574;1.276;2022-08-03T09:22:53;3.55;;;1.80;;
31978;SDS011;18502;43.574;1.276;2022-08-03T09:25:27;3.78;;;2.42;;
31978;SDS011;18502;43.574;1.276;2022-08-03T09:27:54;3.80;;;2.50;;
31978;SDS011;18502;43.574;1.276;2022-08-03T09:30:32;4.10;;;2.38;;
31978;SDS011;18502;43.574;1.276;2022-08-03T09:33:02;5.53;;;2.53;;
31978;SDS011;18502;43.574;1.276;2022-08-03T09:35:30;6.93;;;2.78;;
31978;SDS011;18502;43.574;1.276;2022-08-03T09:38:09;5.00;;;2.58;;
31978;SDS011;18502;43.574;1.276;2022-08-03T09:40:35;5.60;;;2.30;;
31978;SDS011;18502;43.574;1.276;2022-08-03T09:43:01;4.68;;;2.17;;
31978;SDS011;18502;43.574;1.276;2022-08-03T09:45:26;6.80;;;2.53;;
31978;SDS011;18502;43.574;1.276;2022-08-03T09:47:53;4.25;;;1.92;;
31978;SDS011;18502;43.574;1.276;2022-08-03T09:50:20;3.08;;;1.80;;
31978;SDS011;18502;43.574;1.276;2022-08-03T09:52:46;5.63;;;2.15;;
31978;SDS011;18502;43.574;1.276;2022-08-03T09:55:15;2.85;;;2.30;;
31978;SDS011;18502;43.574;1.276;2022-08-03T10:02:43;5.68;;;2.38;;
31978;SDS011;18502;43.574;1.276;2022-08-03T10:05:11;3.45;;;2.00;;
31978;SDS011;18502;43.574;1.276;2022-08-03T10:07:41;2.78;;;2.13;;
31978;SDS011;18502;43.574;1.276;2022-08-03T10:10:11;4.00;;;2.13;;
31978;SDS011;18502;43.574;1.276;2022-08-03T10:12:37;4.60;;;2.03;;
31978;SDS011;18502;43.574;1.276;2022-08-03T10:15:05;2.33;;;2.08;;
31978;SDS011;18502;43.574;1.276;2022-08-03T10:17:32;5.30;;;2.35;;
31978;SDS011;18502;43.574;1.276;2022-08-03T10:19:58;5.60;;;2.35;;
31978;SDS011;18502;43.574;1.276;2022-08-03T10:22:28;3.80;;;2.17;;
31978;SDS011;18502;43.574;1.276;2022-08-03T10:24:58;5.75;;;2.10;;
31978;SDS011;18502;43.574;1.276;2022-08-03T10:27:32;2.35;;;2.15;;
31978;SDS011;18502;43.574;1.276;2022-08-03T10:30:01;2.67;;;2.38;;
31978;SDS011;18502;43.574;1.276;2022-08-03T10:32:49;4.72;;;2.22;;
31978;SDS011;18502;43.574;1.276;2022-08-03T10:35:21;4.88;;;2.25;;
31978;SDS011;18502;43.574;1.276;2022-08-03T10:40:17;6.78;;;2.58;;
31978;SDS011;18502;43.574;1.276;2022-08-03T10:42:46;10.95;;;2.20;;
31978;SDS011;18502;43.574;1.276;2022-08-03T10:45:19;3.50;;;2.38;;
31978;SDS011;18502;43.574;1.276;2022-08-03T10:47:48;3.35;;;2.13;;
31978;SDS011;18502;43.574;1.276;2022-08-03T10:50:15;5.07;;;2.28;;
31978;SDS011;18502;43.574;1.276;2022-08-03T10:53:00;2.53;;;1.90;;
31978;SDS011;18502;43.574;1.276;2022-08-03T10:55:34;5.93;;;2.10;;
31978;SDS011;18502;43.574;1.276;2022-08-03T10:58:45;5.50;;;1.88;;
31978;SDS011;18502;43.574;1.276;2022-08-03T11:01:14;3.67;;;2.00;;
31978;SDS011;18502;43.574;1.276;2022-08-03T11:08:45;4.82;;;1.80;;
31978;SDS011;18502;43.574;1.276;2022-08-03T11:16:21;2.80;;;1.65;;
31978;SDS011;18502;43.574;1.276;2022-08-03T11:18:56;3.00;;;1.80;;
31978;SDS011;18502;43.574;1.276;2022-08-03T11:27:20;3.28;;;1.67;;
31978;SDS011;18502;43.574;1.276;2022-08-03T11:30:09;5.10;;;1.67;;
31978;SDS011;18502;43.574;1.276;2022-08-03T11:32:58;1.80;;;1.63;;
31978;SDS011;18502;43.574;1.276;2022-08-03T11:35:25;3.58;;;1.52;;
31978;SDS011;18502;43.574;1.276;2022-08-03T11:46:05;5.35;;;1.98;;
31978;SDS011;18502;43.574;1.276;2022-08-03T11:51:17;3.63;;;1.63;;
31978;SDS011;18502;43.574;1.276;2022-08-03T11:53:55;3.40;;;1.70;;
31978;SDS011;18502;43.574;1.276;2022-08-03T11:56:21;2.78;;;1.50;;
31978;SDS011;18502;43.574;1.276;2022-08-03T11:58:48;2.72;;;1.27;;
31978;SDS011;18502;43.574;1.276;2022-08-03T12:01:17;4.05;;;1.42;;
31978;SDS011;18502;43.574;1.276;2022-08-03T12:03:43;5.03;;;1.58;;
31978;SDS011;18502;43.574;1.276;2022-08-03T12:06:10;5.18;;;1.70;;
31978;SDS011;18502;43.574;1.276;2022-08-03T12:08:37;2.42;;;1.20;;
31978;SDS011;18502;43.574;1.276;2022-08-03T12:11:05;2.60;;;1.30;;
31978;SDS011;18502;43.574;1.276;2022-08-03T12:13:36;3.30;;;1.40;;
31978;SDS011;18502;43.574;1.276;2022-08-03T12:16:16;5.22;;;1.40;;
31978;SDS011;18502;43.574;1.276;2022-08-03T12:18:43;3.53;;;1.30;;
31978;SDS011;18502;43.574;1.276;2022-08-03T12:21:10;2.97;;;1.67;;
31978;SDS011;18502;43.574;1.276;2022-08-03T12:23:36;3.15;;;1.67;;
31978;SDS011;18502;43.574;1.276;2022-08-03T12:26:07;3.53;;;1.30;;
31978;SDS011;18502;43.574;1.276;2022-08-03T12:28:34;6.35;;;1.50;;
31978;SDS011;18502;43.574;1.276;2022-08-03T12:31:04;5.25;;;1.42;;
31978;SDS011;18502;43.574;1.276;2022-08-03T12:33:34;4.60;;;1.80;;
31978;SDS011;18502;43.574;1.276;2022-08-03T12:36:22;1.40;;;1.10;;
31978;SDS011;18502;43.574;1.276;2022-08-03T12:38:58;5.57;;;1.40;;
31978;SDS011;18502;43.574;1.276;2022-08-03T12:43:54;2.30;;;1.10;;
31978;SDS011;18502;43.574;1.276;2022-08-03T12:46:19;0.80;;;0.80;;
31978;SDS011;18502;43.574;1.276;2022-08-03T12:51:40;3.28;;;1.00;;
31978;SDS011;18502;43.574;1.276;2022-08-03T12:54:25;2.95;;;1.00;;
31978;SDS011;18502;43.574;1.276;2022-08-03T12:57:10;3.35;;;1.50;;
31978;SDS011;18502;43.574;1.276;2022-08-03T12:59:43;3.25;;;1.35;;
31978;SDS011;18502;43.574;1.276;2022-08-03T13:02:15;1.55;;;1.45;;
31978;SDS011;18502;43.574;1.276;2022-08-03T13:04:43;2.08;;;1.17;;
31978;SDS011;18502;43.574;1.276;2022-08-03T13:07:10;1.65;;;1.10;;
31978;SDS011;18502;43.574;1.276;2022-08-03T13:09:39;2.72;;;1.30;;
31978;SDS011;18502;43.574;1.276;2022-08-03T13:12:11;1.50;;;1.40;;
31978;SDS011;18502;43.574;1.276;2022-08-03T13:14:38;1.70;;;1.38;;
31978;SDS011;18502;43.574;1.276;2022-08-03T13:17:04;2.42;;;1.08;;
31978;SDS011;18502;43.574;1.276;2022-08-03T13:19:31;2.50;;;1.48;;
31978;SDS011;18502;43.574;1.276;2022-08-03T13:21:57;3.20;;;1.55;;
31978;SDS011;18502;43.574;1.276;2022-08-03T13:24:23;2.50;;;1.30;;
31978;SDS011;18502;43.574;1.276;2022-08-03T13:26:49;1.25;;;1.00;;
31978;SDS011;18502;43.574;1.276;2022-08-03T13:29:15;1.23;;;1.00;;
31978;SDS011;18502;43.574;1.276;2022-08-03T13:31:41;2.97;;;1.17;;
31978;SDS011;18502;43.574;1.276;2022-08-03T13:34:07;2.03;;;1.20;;
31978;SDS011;18502;43.574;1.276;2022-08-03T13:36:33;1.83;;;1.10;;
31978;SDS011;18502;43.574;1.276;2022-08-03T13:38:59;1.63;;;1.15;;
31978;SDS011;18502;43.574;1.276;2022-08-03T13:41:24;7.70;;;1.40;;
31978;SDS011;18502;43.574;1.276;2022-08-03T13:43:50;3.15;;;1.38;;
31978;SDS011;18502;43.574;1.276;2022-08-03T13:46:16;1.50;;;1.25;;
31978;SDS011;18502;43.574;1.276;2022-08-03T13:48:42;2.22;;;1.17;;
31978;SDS011;18502;43.574;1.276;2022-08-03T13:51:07;2.78;;;1.25;;
31978;SDS011;18502;43.574;1.276;2022-08-03T13:53:33;3.72;;;1.30;;
31978;SDS011;18502;43.574;1.276;2022-08-03T13:55:59;2.70;;;1.42;;
31978;SDS011;18502;43.574;1.276;2022-08-03T13:58:24;1.67;;;1.40;;
31978;SDS011;18502;43.574;1.276;2022-08-03T14:00:50;1.92;;;1.58;;
31978;SDS011;18502;43.574;1.276;2022-08-03T14:03:16;2.35;;;1.20;;
31978;SDS011;18502;43.574;1.276;2022-08-03T14:05:42;1.50;;;1.40;;
31978;SDS011;18502;43.574;1.276;2022-08-03T14:08:08;2.00;;;1.20;;
31978;SDS011;18502;43.574;1.276;2022-08-03T14:10:35;2.70;;;1.40;;
31978;SDS011;18502;43.574;1.276;2022-08-03T14:13:02;3.78;;;1.65;;
31978;SDS011;18502;43.574;1.276;2022-08-03T14:15:28;3.17;;;1.35;;
31978;SDS011;18502;43.574;1.276;2022-08-03T14:17:55;5.22;;;1.63;;
31978;SDS011;18502;43.574;1.276;2022-08-03T14:20:21;1.65;;;1.40;;
31978;SDS011;18502;43.574;1.276;2022-08-03T14:22:47;3.53;;;1.60;;
31978;SDS011;18502;43.574;1.276;2022-08-03T14:25:12;3.03;;;1.40;;
31978;SDS011;18502;43.574;1.276;2022-08-03T14:27:38;1.40;;;1.10;;
31978;SDS011;18502;43.574;1.276;2022-08-03T14:30:04;1.85;;;1.10;;
31978;SDS011;18502;43.574;1.276;2022-08-03T14:32:30;3.67;;;1.40;;
31978;SDS011;18502;43.574;1.276;2022-08-03T14:34:55;1.50;;;1.38;;
31978;SDS011;18502;43.574;1.276;2022-08-03T14:37:21;4.97;;;1.40;;
31978;SDS011;18502;43.574;1.276;2022-08-03T14:39:47;2.28;;;1.77;;
31978;SDS011;18502;43.574;1.276;2022-08-03T14:42:13;8.60;;;2.30;;
31978;SDS011;18502;43.574;1.276;2022-08-03T14:44:39;4.05;;;1.70;;
31978;SDS011;18502;43.574;1.276;2022-08-03T14:47:05;1.63;;;1.35;;
31978;SDS011;18502;43.574;1.276;2022-08-03T14:49:31;2.72;;;1.50;;
31978;SDS011;18502;43.574;1.276;2022-08-03T14:51:57;1.52;;;1.42;;
31978;SDS011;18502;43.574;1.276;2022-08-03T14:54:23;3.63;;;1.40;;
31978;SDS011;18502;43.574;1.276;2022-08-03T14:56:49;1.42;;;1.33;;
31978;SDS011;18502;43.574;1.276;2022-08-03T14:59:15;2.38;;;1.30;;
31978;SDS011;18502;43.574;1.276;2022-08-03T15:01:40;2.55;;;1.25;;
31978;SDS011;18502;43.574;1.276;2022-08-03T15:04:06;3.08;;;1.50;;
31978;SDS011;18502;43.574;1.276;2022-08-03T15:06:32;4.45;;;1.52;;
31978;SDS011;18502;43.574;1.276;2022-08-03T15:08:57;4.60;;;1.58;;
31978;SDS011;18502;43.574;1.276;2022-08-03T15:11:23;2.00;;;1.40;;
31978;SDS011;18502;43.574;1.276;2022-08-03T15:13:48;2.75;;;1.70;;
31978;SDS011;18502;43.574;1.276;2022-08-03T15:16:14;1.83;;;1.40;;
31978;SDS011;18502;43.574;1.276;2022-08-03T15:18:40;3.03;;;1.60;;
31978;SDS011;18502;43.574;1.276;2022-08-03T15:21:06;1.33;;;1.30;;
31978;SDS011;18502;43.574;1.276;2022-08-03T15:23:31;2.05;;;1.50;;
31978;SDS011;18502;43.574;1.276;2022-08-03T15:25:57;5.75;;;1.63;;
31978;SDS011;18502;43.574;1.276;2022-08-03T15:28:23;1.88;;;1.40;;
31978;SDS011;18502;43.574;1.276;2022-08-03T15:30:50;2.95;;;1.73;;
31978;SDS011;18502;43.574;1.276;2022-08-03T15:33:16;4.63;;;1.52;;
31978;SDS011;18502;43.574;1.276;2022-08-03T15:35:42;5.20;;;1.70;;
31978;SDS011;18502;43.574;1.276;2022-08-03T15:38:08;4.63;;;1.65;;
31978;SDS011;18502;43.574;1.276;2022-08-03T15:40:33;2.45;;;1.67;;
31978;SDS011;18502;43.574;1.276;2022-08-03T15:42:59;4.28;;;1.58;;
31978;SDS011;18502;43.574;1.276;2022-08-03T15:45:25;2.17;;;1.50;;
31978;SDS011;18502;43.574;1.276;2022-08-03T15:47:52;3.65;;;1.63;;
31978;SDS011;18502;43.574;1.276;2022-08-03T15:50:18;2.60;;;1.88;;
31978;SDS011;18502;43.574;1.276;2022-08-03T15:52:43;3.17;;;1.35;;
31978;SDS011;18502;43.574;1.276;2022-08-03T15:55:09;2.13;;;1.73;;
31978;SDS011;18502;43.574;1.276;2022-08-03T15:57:35;2.28;;;1.70;;